sensor_id;sensor_type;location;lat;lon;timestamp;P1;durP1;ratioP1;P2;durP2;ratioP2
12445;SDS011;6287;50.984;7.022;2022-09-25T00:01:01;13.47;;;8.90;;
12445;SDS011;6287;50.984;7.022;2022-09-25T00:03:31;12.93;;;8.57;;
12445;SDS011;6287;50.984;7.022;2022-09-25T00:06:07;13.47;;;8.80;;
12445;SDS011;6287;50.984;7.022;2022-09-25T00:08:33;16.23;;;10.07;;
12445;SDS011;6287;50.984;7.022;2022-09-25T00:11:03;12.93;;;8.90;;
12445;SDS011;6287;50.984;7.022;2022-09-25T00:13:33;13.50;;;8.43;;
12445;SDS011;6287;50.984;7.022;2022-09-25T00:15:59;12.77;;;9.17;;
12445;SDS011;6287;50.984;7.022;2022-09-25T00:18:26;13.97;;;8.77;;
12445;SDS011;6287;50.984;7.022;2022-09-25T00:21:12;14.10;;;8.50;;
12445;SDS011;6287;50.984;7.022;2022-09-25T00:23:39;12.77;;;9.47;;
12445;SDS011;6287;50.984;7.022;2022-09-25T00:26:08;15.93;;;9.07;;
12445;SDS011;6287;50.984;7.022;2022-09-25T00:28:35;14.47;;;9.33;;
12445;SDS011;6287;50.984;7.022;2022-09-25T00:31:05;14.77;;;8.67;;
12445;SDS011;6287;50.984;7.022;2022-09-25T00:33:34;16.50;;;9.60;;
12445;SDS011;6287;50.984;7.022;2022-09-25T00:36:07;14.87;;;9.63;;
12445;SDS011;6287;50.984;7.022;2022-09-25T00:38:34;14.80;;;9.80;;
12445;SDS011;6287;50.984;7.022;2022-09-25T00:41:01;15.40;;;9.60;;
12445;SDS011;6287;50.984;7.022;2022-09-25T00:43:47;15.83;;;9.63;;
12445;SDS011;6287;50.984;7.022;2022-09-25T00:48:51;13.57;;;8.87;;
12445;SDS011;6287;50.984;7.022;2022-09-25T00:51:20;15.60;;;9.53;;
12445;SDS011;6287;50.984;7.022;2022-09-25T00:53:53;17.53;;;9.57;;
12445;SDS011;6287;50.984;7.022;2022-09-25T00:56:29;14.07;;;9.40;;
12445;SDS011;6287;50.984;7.022;2022-09-25T00:58:59;14.57;;;9.33;;
12445;SDS011;6287;50.984;7.022;2022-09-25T01:01:24;17.30;;;10.27;;
12445;SDS011;6287;50.984;7.022;2022-09-25T01:03:50;15.13;;;9.60;;
12445;SDS011;6287;50.984;7.022;2022-09-25T01:06:16;16.40;;;10.03;;
12445;SDS011;6287;50.984;7.022;2022-09-25T01:08:42;15.63;;;9.93;;
12445;SDS011;6287;50.984;7.022;2022-09-25T01:11:10;16.03;;;9.23;;
12445;SDS011;6287;50.984;7.022;2022-09-25T01:13:36;13.80;;;9.23;;
12445;SDS011;6287;50.984;7.022;2022-09-25T01:16:08;14.63;;;9.97;;
12445;SDS011;6287;50.984;7.022;2022-09-25T01:19:11;16.80;;;9.60;;
12445;SDS011;6287;50.984;7.022;2022-09-25T01:21:43;15.67;;;9.63;;
12445;SDS011;6287;50.984;7.022;2022-09-25T01:24:40;17.40;;;9.27;;
12445;SDS011;6287;50.984;7.022;2022-09-25T01:30:01;12.93;;;8.87;;
12445;SDS011;6287;50.984;7.022;2022-09-25T01:32:35;16.20;;;9.90;;
12445;SDS011;6287;50.984;7.022;2022-09-25T01:37:43;15.03;;;9.20;;
12445;SDS011;6287;50.984;7.022;2022-09-25T01:40:20;16.83;;;10.17;;
12445;SDS011;6287;50.984;7.022;2022-09-25T01:42:47;15.00;;;9.60;;
12445;SDS011;6287;50.984;7.022;2022-09-25T01:45:49;15.87;;;9.97;;
12445;SDS011;6287;50.984;7.022;2022-09-25T01:48:29;17.47;;;9.93;;
12445;SDS011;6287;50.984;7.022;2022-09-25T01:53:37;15.90;;;10.23;;
12445;SDS011;6287;50.984;7.022;2022-09-25T01:56:13;15.23;;;9.63;;
12445;SDS011;6287;50.984;7.022;2022-09-25T01:58:48;15.13;;;9.63;;
12445;SDS011;6287;50.984;7.022;2022-09-25T02:01:30;14.93;;;10.37;;
12445;SDS011;6287;50.984;7.022;2022-09-25T02:04:02;15.83;;;10.00;;
12445;SDS011;6287;50.984;7.022;2022-09-25T02:06:32;15.47;;;10.33;;
12445;SDS011;6287;50.984;7.022;2022-09-25T02:09:08;16.13;;;10.37;;
12445;SDS011;6287;50.984;7.022;2022-09-25T02:11:41;16.93;;;9.83;;
12445;SDS011;6287;50.984;7.022;2022-09-25T02:14:12;16.63;;;10.47;;
12445;SDS011;6287;50.984;7.022;2022-09-25T02:16:44;15.07;;;9.47;;
12445;SDS011;6287;50.984;7.022;2022-09-25T02:19:15;14.53;;;10.03;;
12445;SDS011;6287;50.984;7.022;2022-09-25T02:27:12;16.67;;;9.70;;
12445;SDS011;6287;50.984;7.022;2022-09-25T02:29:39;15.27;;;9.43;;
12445;SDS011;6287;50.984;7.022;2022-09-25T02:32:08;16.13;;;9.60;;
12445;SDS011;6287;50.984;7.022;2022-09-25T02:34:40;15.27;;;9.60;;
12445;SDS011;6287;50.984;7.022;2022-09-25T02:37:13;15.37;;;9.30;;
12445;SDS011;6287;50.984;7.022;2022-09-25T02:39:45;18.17;;;9.70;;
12445;SDS011;6287;50.984;7.022;2022-09-25T02:54:07;16.83;;;9.50;;
12445;SDS011;6287;50.984;7.022;2022-09-25T02:56:42;13.97;;;8.83;;
12445;SDS011;6287;50.984;7.022;2022-09-25T02:59:32;18.00;;;9.70;;
12445;SDS011;6287;50.984;7.022;2022-09-25T03:02:06;13.10;;;8.43;;
12445;SDS011;6287;50.984;7.022;2022-09-25T03:04:38;14.10;;;8.67;;
12445;SDS011;6287;50.984;7.022;2022-09-25T03:07:08;12.67;;;7.50;;
12445;SDS011;6287;50.984;7.022;2022-09-25T03:09:34;12.03;;;6.90;;
12445;SDS011;6287;50.984;7.022;2022-09-25T03:12:06;8.67;;;6.13;;
12445;SDS011;6287;50.984;7.022;2022-09-25T03:14:39;10.93;;;5.97;;
12445;SDS011;6287;50.984;7.022;2022-09-25T03:17:07;11.40;;;6.03;;
12445;SDS011;6287;50.984;7.022;2022-09-25T03:19:36;8.73;;;5.90;;
12445;SDS011;6287;50.984;7.022;2022-09-25T03:22:02;8.57;;;5.53;;
12445;SDS011;6287;50.984;7.022;2022-09-25T03:24:28;7.17;;;5.13;;
12445;SDS011;6287;50.984;7.022;2022-09-25T03:26:56;8.50;;;5.60;;
12445;SDS011;6287;50.984;7.022;2022-09-25T03:29:22;8.13;;;5.77;;
12445;SDS011;6287;50.984;7.022;2022-09-25T03:31:48;8.77;;;5.23;;
12445;SDS011;6287;50.984;7.022;2022-09-25T03:34:15;8.50;;;5.00;;
12445;SDS011;6287;50.984;7.022;2022-09-25T03:36:44;6.93;;;5.40;;
12445;SDS011;6287;50.984;7.022;2022-09-25T03:39:13;7.13;;;5.00;;
12445;SDS011;6287;50.984;7.022;2022-09-25T03:41:41;10.30;;;5.30;;
12445;SDS011;6287;50.984;7.022;2022-09-25T03:44:11;8.40;;;5.30;;
12445;SDS011;6287;50.984;7.022;2022-09-25T03:46:37;5.87;;;4.80;;
12445;SDS011;6287;50.984;7.022;2022-09-25T03:49:03;6.00;;;4.73;;
12445;SDS011;6287;50.984;7.022;2022-09-25T03:51:32;8.40;;;4.60;;
12445;SDS011;6287;50.984;7.022;2022-09-25T03:53:58;7.40;;;5.03;;
12445;SDS011;6287;50.984;7.022;2022-09-25T03:56:27;7.60;;;5.13;;
12445;SDS011;6287;50.984;7.022;2022-09-25T03:58:56;7.33;;;5.17;;
12445;SDS011;6287;50.984;7.022;2022-09-25T04:01:27;6.87;;;5.33;;
12445;SDS011;6287;50.984;7.022;2022-09-25T04:03:55;6.87;;;4.40;;
12445;SDS011;6287;50.984;7.022;2022-09-25T04:06:24;5.27;;;3.80;;
12445;SDS011;6287;50.984;7.022;2022-09-25T04:08:50;5.27;;;3.57;;
12445;SDS011;6287;50.984;7.022;2022-09-25T04:11:17;4.43;;;3.53;;
12445;SDS011;6287;50.984;7.022;2022-09-25T04:13:49;6.40;;;3.20;;
12445;SDS011;6287;50.984;7.022;2022-09-25T04:16:16;2.67;;;2.27;;
12445;SDS011;6287;50.984;7.022;2022-09-25T04:18:44;2.87;;;2.40;;
12445;SDS011;6287;50.984;7.022;2022-09-25T04:21:13;3.77;;;2.30;;
12445;SDS011;6287;50.984;7.022;2022-09-25T04:23:39;3.40;;;2.07;;
12445;SDS011;6287;50.984;7.022;2022-09-25T04:26:05;4.73;;;2.43;;
12445;SDS011;6287;50.984;7.022;2022-09-25T04:28:31;2.60;;;2.40;;
12445;SDS011;6287;50.984;7.022;2022-09-25T04:30:58;2.63;;;2.37;;
12445;SDS011;6287;50.984;7.022;2022-09-25T04:33:30;1.90;;;1.80;;
12445;SDS011;6287;50.984;7.022;2022-09-25T04:36:11;3.43;;;1.87;;
12445;SDS011;6287;50.984;7.022;2022-09-25T04:38:37;3.70;;;1.77;;
12445;SDS011;6287;50.984;7.022;2022-09-25T04:41:05;2.53;;;1.63;;
12445;SDS011;6287;50.984;7.022;2022-09-25T04:43:32;2.10;;;1.60;;
12445;SDS011;6287;50.984;7.022;2022-09-25T04:46:02;3.77;;;2.50;;
12445;SDS011;6287;50.984;7.022;2022-09-25T04:48:31;3.70;;;3.27;;
12445;SDS011;6287;50.984;7.022;2022-09-25T04:50:57;1.90;;;1.80;;
12445;SDS011;6287;50.984;7.022;2022-09-25T04:53:27;2.70;;;1.57;;
12445;SDS011;6287;50.984;7.022;2022-09-25T04:55:54;3.10;;;2.20;;
12445;SDS011;6287;50.984;7.022;2022-09-25T04:58:28;3.77;;;2.10;;
12445;SDS011;6287;50.984;7.022;2022-09-25T05:01:00;6.57;;;2.27;;
12445;SDS011;6287;50.984;7.022;2022-09-25T05:03:28;3.93;;;1.90;;
12445;SDS011;6287;50.984;7.022;2022-09-25T05:05:56;4.73;;;2.47;;
12445;SDS011;6287;50.984;7.022;2022-09-25T05:08:23;3.37;;;1.87;;
12445;SDS011;6287;50.984;7.022;2022-09-25T05:10:52;4.67;;;1.43;;
12445;SDS011;6287;50.984;7.022;2022-09-25T05:13:17;3.27;;;1.73;;
12445;SDS011;6287;50.984;7.022;2022-09-25T05:15:43;2.30;;;1.50;;
12445;SDS011;6287;50.984;7.022;2022-09-25T05:20:37;4.97;;;2.47;;
12445;SDS011;6287;50.984;7.022;2022-09-25T05:23:03;3.50;;;2.03;;
12445;SDS011;6287;50.984;7.022;2022-09-25T05:25:28;2.23;;;1.40;;
12445;SDS011;6287;50.984;7.022;2022-09-25T05:27:56;2.70;;;1.37;;
12445;SDS011;6287;50.984;7.022;2022-09-25T05:30:23;4.40;;;2.00;;
12445;SDS011;6287;50.984;7.022;2022-09-25T05:32:53;5.83;;;2.00;;
12445;SDS011;6287;50.984;7.022;2022-09-25T05:35:22;3.80;;;2.47;;
12445;SDS011;6287;50.984;7.022;2022-09-25T05:37:48;5.40;;;2.50;;
12445;SDS011;6287;50.984;7.022;2022-09-25T05:40:17;4.57;;;2.13;;
12445;SDS011;6287;50.984;7.022;2022-09-25T05:42:47;3.50;;;2.43;;
12445;SDS011;6287;50.984;7.022;2022-09-25T05:45:18;2.67;;;1.70;;
12445;SDS011;6287;50.984;7.022;2022-09-25T05:47:45;3.53;;;1.50;;
12445;SDS011;6287;50.984;7.022;2022-09-25T05:50:11;2.50;;;1.30;;
12445;SDS011;6287;50.984;7.022;2022-09-25T05:52:39;1.90;;;1.53;;
12445;SDS011;6287;50.984;7.022;2022-09-25T05:55:07;1.40;;;1.30;;
12445;SDS011;6287;50.984;7.022;2022-09-25T05:57:35;3.00;;;1.70;;
12445;SDS011;6287;50.984;7.022;2022-09-25T06:00:03;3.30;;;1.83;;
12445;SDS011;6287;50.984;7.022;2022-09-25T06:02:34;2.83;;;1.40;;
12445;SDS011;6287;50.984;7.022;2022-09-25T06:04:59;2.67;;;1.40;;
12445;SDS011;6287;50.984;7.022;2022-09-25T06:07:27;4.27;;;1.10;;
12445;SDS011;6287;50.984;7.022;2022-09-25T06:09:55;1.90;;;1.10;;
12445;SDS011;6287;50.984;7.022;2022-09-25T06:12:21;4.23;;;0.93;;
12445;SDS011;6287;50.984;7.022;2022-09-25T06:14:48;2.53;;;0.87;;
12445;SDS011;6287;50.984;7.022;2022-09-25T06:17:16;1.73;;;0.90;;
12445;SDS011;6287;50.984;7.022;2022-09-25T06:19:44;2.00;;;1.10;;
12445;SDS011;6287;50.984;7.022;2022-09-25T06:22:10;0.90;;;0.80;;
12445;SDS011;6287;50.984;7.022;2022-09-25T06:24:36;4.40;;;1.00;;
12445;SDS011;6287;50.984;7.022;2022-09-25T06:27:04;2.73;;;1.07;;
12445;SDS011;6287;50.984;7.022;2022-09-25T06:29:30;2.87;;;1.10;;
12445;SDS011;6287;50.984;7.022;2022-09-25T06:31:56;2.80;;;1.60;;
12445;SDS011;6287;50.984;7.022;2022-09-25T06:34:21;2.23;;;1.07;;
12445;SDS011;6287;50.984;7.022;2022-09-25T06:36:50;2.40;;;1.20;;
12445;SDS011;6287;50.984;7.022;2022-09-25T06:39:17;1.10;;;0.90;;
12445;SDS011;6287;50.984;7.022;2022-09-25T06:41:43;1.37;;;1.20;;
12445;SDS011;6287;50.984;7.022;2022-09-25T06:44:13;2.50;;;1.30;;
12445;SDS011;6287;50.984;7.022;2022-09-25T06:46:39;5.10;;;1.77;;
12445;SDS011;6287;50.984;7.022;2022-09-25T06:49:10;6.17;;;1.27;;
12445;SDS011;6287;50.984;7.022;2022-09-25T06:51:38;1.90;;;1.63;;
12445;SDS011;6287;50.984;7.022;2022-09-25T06:54:06;2.40;;;1.30;;
12445;SDS011;6287;50.984;7.022;2022-09-25T06:56:32;1.43;;;1.10;;
12445;SDS011;6287;50.984;7.022;2022-09-25T06:58:57;4.93;;;1.77;;
12445;SDS011;6287;50.984;7.022;2022-09-25T07:01:23;3.53;;;1.77;;
12445;SDS011;6287;50.984;7.022;2022-09-25T07:03:53;3.73;;;1.73;;
12445;SDS011;6287;50.984;7.022;2022-09-25T07:06:24;5.20;;;1.90;;
12445;SDS011;6287;50.984;7.022;2022-09-25T07:08:55;7.77;;;2.00;;
12445;SDS011;6287;50.984;7.022;2022-09-25T07:11:25;6.00;;;1.70;;
12445;SDS011;6287;50.984;7.022;2022-09-25T07:14:00;3.77;;;1.80;;
12445;SDS011;6287;50.984;7.022;2022-09-25T07:16:27;4.73;;;2.07;;
12445;SDS011;6287;50.984;7.022;2022-09-25T07:18:54;3.17;;;2.03;;
12445;SDS011;6287;50.984;7.022;2022-09-25T07:21:24;4.80;;;2.20;;
12445;SDS011;6287;50.984;7.022;2022-09-25T07:23:53;5.33;;;1.73;;
12445;SDS011;6287;50.984;7.022;2022-09-25T07:26:20;4.77;;;2.10;;
12445;SDS011;6287;50.984;7.022;2022-09-25T07:31:26;3.90;;;1.50;;
12445;SDS011;6287;50.984;7.022;2022-09-25T07:33:53;3.50;;;1.80;;
12445;SDS011;6287;50.984;7.022;2022-09-25T07:36:21;3.87;;;1.73;;
12445;SDS011;6287;50.984;7.022;2022-09-25T07:38:48;5.77;;;1.63;;
12445;SDS011;6287;50.984;7.022;2022-09-25T07:41:14;5.97;;;1.73;;
12445;SDS011;6287;50.984;7.022;2022-09-25T07:43:40;5.67;;;1.53;;
12445;SDS011;6287;50.984;7.022;2022-09-25T07:46:11;3.70;;;1.87;;
12445;SDS011;6287;50.984;7.022;2022-09-25T07:48:37;4.63;;;1.50;;
12445;SDS011;6287;50.984;7.022;2022-09-25T07:51:09;3.67;;;1.53;;
12445;SDS011;6287;50.984;7.022;2022-09-25T07:53:40;3.27;;;1.37;;
12445;SDS011;6287;50.984;7.022;2022-09-25T07:56:11;4.33;;;1.97;;
12445;SDS011;6287;50.984;7.022;2022-09-25T07:58:39;4.63;;;1.30;;
12445;SDS011;6287;50.984;7.022;2022-09-25T08:01:06;4.17;;;1.60;;
12445;SDS011;6287;50.984;7.022;2022-09-25T08:03:37;2.97;;;1.60;;
12445;SDS011;6287;50.984;7.022;2022-09-25T08:06:03;4.27;;;1.30;;
12445;SDS011;6287;50.984;7.022;2022-09-25T08:08:32;4.97;;;1.50;;
12445;SDS011;6287;50.984;7.022;2022-09-25T08:10:59;2.80;;;1.50;;
12445;SDS011;6287;50.984;7.022;2022-09-25T08:13:26;4.40;;;1.40;;
12445;SDS011;6287;50.984;7.022;2022-09-25T08:15:53;4.90;;;1.37;;
12445;SDS011;6287;50.984;7.022;2022-09-25T08:18:18;3.87;;;1.17;;
12445;SDS011;6287;50.984;7.022;2022-09-25T08:20:44;3.27;;;1.23;;
12445;SDS011;6287;50.984;7.022;2022-09-25T08:23:10;3.63;;;0.90;;
12445;SDS011;6287;50.984;7.022;2022-09-25T08:25:38;2.53;;;1.30;;
12445;SDS011;6287;50.984;7.022;2022-09-25T08:28:03;2.20;;;1.00;;
12445;SDS011;6287;50.984;7.022;2022-09-25T08:30:35;3.33;;;1.00;;
12445;SDS011;6287;50.984;7.022;2022-09-25T08:33:02;3.13;;;1.40;;
12445;SDS011;6287;50.984;7.022;2022-09-25T08:35:35;2.57;;;1.20;;
12445;SDS011;6287;50.984;7.022;2022-09-25T08:38:07;2.00;;;0.80;;
12445;SDS011;6287;50.984;7.022;2022-09-25T08:40:37;2.40;;;0.80;;
12445;SDS011;6287;50.984;7.022;2022-09-25T08:43:14;2.93;;;0.80;;
12445;SDS011;6287;50.984;7.022;2022-09-25T08:45:46;4.57;;;1.33;;
12445;SDS011;6287;50.984;7.022;2022-09-25T08:51:38;1.63;;;0.70;;
12445;SDS011;6287;50.984;7.022;2022-09-25T08:54:15;1.52;;;1.00;;
12445;SDS011;6287;50.984;7.022;2022-09-25T08:56:47;2.93;;;1.00;;
12445;SDS011;6287;50.984;7.022;2022-09-25T08:59:22;1.50;;;0.80;;
12445;SDS011;6287;50.984;7.022;2022-09-25T09:01:54;3.55;;;1.15;;
12445;SDS011;6287;50.984;7.022;2022-09-25T09:06:59;1.15;;;0.80;;
12445;SDS011;6287;50.984;7.022;2022-09-25T09:09:55;1.70;;;0.82;;
12445;SDS011;6287;50.984;7.022;2022-09-25T09:12:41;3.85;;;0.73;;
12445;SDS011;6287;50.984;7.022;2022-09-25T09:17:47;5.20;;;1.05;;
12445;SDS011;6287;50.984;7.022;2022-09-25T09:20:18;2.67;;;0.80;;
12445;SDS011;6287;50.984;7.022;2022-09-25T09:23:01;0.70;;;0.40;;
12445;SDS011;6287;50.984;7.022;2022-09-25T09:25:37;0.90;;;0.80;;
12445;SDS011;6287;50.984;7.022;2022-09-25T09:30:54;2.57;;;0.80;;
12445;SDS011;6287;50.984;7.022;2022-09-25T09:33:33;2.67;;;1.02;;
12445;SDS011;6287;50.984;7.022;2022-09-25T09:38:59;2.92;;;0.82;;
12445;SDS011;6287;50.984;7.022;2022-09-25T09:54:45;0.45;;;0.40;;
12445;SDS011;6287;50.984;7.022;2022-09-25T09:57:36;0.63;;;0.63;;
12445;SDS011;6287;50.984;7.022;2022-09-25T10:00:06;0.60;;;0.52;;
12445;SDS011;6287;50.984;7.022;2022-09-25T10:02:57;2.00;;;0.68;;
12445;SDS011;6287;50.984;7.022;2022-09-25T10:05:45;1.60;;;0.50;;
12445;SDS011;6287;50.984;7.022;2022-09-25T10:08:17;2.92;;;0.50;;
12445;SDS011;6287;50.984;7.022;2022-09-25T10:10:44;1.30;;;0.70;;
12445;SDS011;6287;50.984;7.022;2022-09-25T10:13:22;1.65;;;0.50;;
12445;SDS011;6287;50.984;7.022;2022-09-25T10:16:01;2.70;;;0.60;;
12445;SDS011;6287;50.984;7.022;2022-09-25T10:18:36;0.75;;;0.50;;
12445;SDS011;6287;50.984;7.022;2022-09-25T10:21:19;1.58;;;0.52;;
12445;SDS011;6287;50.984;7.022;2022-09-25T10:23:49;1.77;;;0.63;;
12445;SDS011;6287;50.984;7.022;2022-09-25T10:26:30;0.90;;;0.60;;
12445;SDS011;6287;50.984;7.022;2022-09-25T10:31:55;1.58;;;0.50;;
12445;SDS011;6287;50.984;7.022;2022-09-25T10:34:27;3.08;;;0.68;;
12445;SDS011;6287;50.984;7.022;2022-09-25T10:36:55;2.83;;;0.52;;
12445;SDS011;6287;50.984;7.022;2022-09-25T10:41:56;0.95;;;0.60;;
12445;SDS011;6287;50.984;7.022;2022-09-25T10:47:00;1.77;;;0.70;;
12445;SDS011;6287;50.984;7.022;2022-09-25T10:52:51;1.15;;;0.60;;
12445;SDS011;6287;50.984;7.022;2022-09-25T10:55:27;0.45;;;0.40;;
12445;SDS011;6287;50.984;7.022;2022-09-25T11:03:22;1.65;;;0.47;;
12445;SDS011;6287;50.984;7.022;2022-09-25T11:05:54;0.55;;;0.40;;
12445;SDS011;6287;50.984;7.022;2022-09-25T11:08:26;2.70;;;0.68;;
12445;SDS011;6287;50.984;7.022;2022-09-25T11:10:58;0.68;;;0.40;;
12445;SDS011;6287;50.984;7.022;2022-09-25T11:13:44;1.83;;;0.68;;
12445;SDS011;6287;50.984;7.022;2022-09-25T11:16:18;1.23;;;0.47;;
12445;SDS011;6287;50.984;7.022;2022-09-25T11:23:55;0.50;;;0.50;;
12445;SDS011;6287;50.984;7.022;2022-09-25T11:40:05;1.15;;;0.50;;
12445;SDS011;6287;50.984;7.022;2022-09-25T11:43:08;0.55;;;0.43;;
12445;SDS011;6287;50.984;7.022;2022-09-25T11:45:54;1.08;;;0.70;;
12445;SDS011;6287;50.984;7.022;2022-09-25T12:03:04;0.60;;;0.60;;
12445;SDS011;6287;50.984;7.022;2022-09-25T12:06:16;0.68;;;0.68;;
12445;SDS011;6287;50.984;7.022;2022-09-25T12:11:48;0.73;;;0.43;;
12445;SDS011;6287;50.984;7.022;2022-09-25T12:17:11;1.48;;;0.50;;
12445;SDS011;6287;50.984;7.022;2022-09-25T12:23:00;4.68;;;1.05;;
12445;SDS011;6287;50.984;7.022;2022-09-25T12:29:22;1.15;;;0.50;;
12445;SDS011;6287;50.984;7.022;2022-09-25T12:40:22;0.43;;;0.43;;
12445;SDS011;6287;50.984;7.022;2022-09-25T12:56:15;0.40;;;0.30;;
12445;SDS011;6287;50.984;7.022;2022-09-25T13:04:12;0.90;;;0.40;;
12445;SDS011;6287;50.984;7.022;2022-09-25T13:09:52;0.32;;;0.32;;
12445;SDS011;6287;50.984;7.022;2022-09-25T13:12:21;0.28;;;0.28;;
12445;SDS011;6287;50.984;7.022;2022-09-25T13:17:39;0.32;;;0.20;;
12445;SDS011;6287;50.984;7.022;2022-09-25T13:22:51;0.70;;;0.50;;
12445;SDS011;6287;50.984;7.022;2022-09-25T13:25:41;0.52;;;0.50;;
12445;SDS011;6287;50.984;7.022;2022-09-25T13:28:20;1.00;;;0.40;;
12445;SDS011;6287;50.984;7.022;2022-09-25T13:31:04;0.47;;;0.38;;
12445;SDS011;6287;50.984;7.022;2022-09-25T13:33:45;0.85;;;0.38;;
12445;SDS011;6287;50.984;7.022;2022-09-25T13:38:47;1.38;;;0.70;;
12445;SDS011;6287;50.984;7.022;2022-09-25T13:41:35;0.43;;;0.40;;
12445;SDS011;6287;50.984;7.022;2022-09-25T13:55:13;0.70;;;0.70;;
12445;SDS011;6287;50.984;7.022;2022-09-25T14:01:04;1.10;;;0.50;;
12445;SDS011;6287;50.984;7.022;2022-09-25T14:06:09;0.30;;;0.30;;
12445;SDS011;6287;50.984;7.022;2022-09-25T14:08:41;0.52;;;0.47;;
12445;SDS011;6287;50.984;7.022;2022-09-25T14:11:11;0.75;;;0.40;;
12445;SDS011;6287;50.984;7.022;2022-09-25T14:13:49;1.17;;;0.50;;
12445;SDS011;6287;50.984;7.022;2022-09-25T14:16:25;1.30;;;0.70;;
12445;SDS011;6287;50.984;7.022;2022-09-25T14:18:56;3.10;;;0.65;;
12445;SDS011;6287;50.984;7.022;2022-09-25T14:21:26;1.25;;;0.70;;
12445;SDS011;6287;50.984;7.022;2022-09-25T14:23:54;1.10;;;0.57;;
12445;SDS011;6287;50.984;7.022;2022-09-25T14:26:44;0.60;;;0.60;;
12445;SDS011;6287;50.984;7.022;2022-09-25T14:29:23;0.98;;;0.70;;
12445;SDS011;6287;50.984;7.022;2022-09-25T14:47:58;0.28;;;0.22;;
12445;SDS011;6287;50.984;7.022;2022-09-25T14:50:32;1.45;;;0.30;;
12445;SDS011;6287;50.984;7.022;2022-09-25T14:53:06;0.38;;;0.38;;
12445;SDS011;6287;50.984;7.022;2022-09-25T14:55:43;0.50;;;0.47;;
12445;SDS011;6287;50.984;7.022;2022-09-25T14:58:13;0.82;;;0.50;;
12445;SDS011;6287;50.984;7.022;2022-09-25T15:00:47;1.42;;;0.60;;
12445;SDS011;6287;50.984;7.022;2022-09-25T15:03:17;0.52;;;0.40;;
12445;SDS011;6287;50.984;7.022;2022-09-25T15:05:48;0.32;;;0.32;;
12445;SDS011;6287;50.984;7.022;2022-09-25T15:08:34;1.13;;;0.70;;
12445;SDS011;6287;50.984;7.022;2022-09-25T15:11:13;0.50;;;0.50;;
12445;SDS011;6287;50.984;7.022;2022-09-25T15:13:42;0.52;;;0.47;;
12445;SDS011;6287;50.984;7.022;2022-09-25T15:19:21;2.70;;;0.50;;
12445;SDS011;6287;50.984;7.022;2022-09-25T15:21:51;0.55;;;0.55;;
12445;SDS011;6287;50.984;7.022;2022-09-25T15:24:19;1.05;;;0.65;;
12445;SDS011;6287;50.984;7.022;2022-09-25T15:26:56;0.73;;;0.40;;
12445;SDS011;6287;50.984;7.022;2022-09-25T15:29:37;1.75;;;0.80;;
12445;SDS011;6287;50.984;7.022;2022-09-25T15:32:17;1.05;;;1.05;;
12445;SDS011;6287;50.984;7.022;2022-09-25T15:35:13;0.50;;;0.50;;
12445;SDS011;6287;50.984;7.022;2022-09-25T15:37:47;0.50;;;0.50;;
12445;SDS011;6287;50.984;7.022;2022-09-25T15:40:21;0.40;;;0.40;;
12445;SDS011;6287;50.984;7.022;2022-09-25T15:42:52;0.68;;;0.68;;
12445;SDS011;6287;50.984;7.022;2022-09-25T15:45:41;0.60;;;0.60;;
12445;SDS011;6287;50.984;7.022;2022-09-25T15:51:01;1.45;;;0.70;;
12445;SDS011;6287;50.984;7.022;2022-09-25T15:53:53;0.85;;;0.60;;
12445;SDS011;6287;50.984;7.022;2022-09-25T15:59:30;0.30;;;0.30;;
12445;SDS011;6287;50.984;7.022;2022-09-25T16:02:24;0.73;;;0.43;;
12445;SDS011;6287;50.984;7.022;2022-09-25T16:05:09;1.00;;;0.50;;
12445;SDS011;6287;50.984;7.022;2022-09-25T16:07:37;0.40;;;0.40;;
12445;SDS011;6287;50.984;7.022;2022-09-25T16:17:54;0.40;;;0.40;;
12445;SDS011;6287;50.984;7.022;2022-09-25T16:22:57;0.28;;;0.28;;
12445;SDS011;6287;50.984;7.022;2022-09-25T16:25:28;0.50;;;0.22;;
12445;SDS011;6287;50.984;7.022;2022-09-25T16:28:21;0.73;;;0.35;;
12445;SDS011;6287;50.984;7.022;2022-09-25T16:31:08;0.60;;;0.60;;
12445;SDS011;6287;50.984;7.022;2022-09-25T16:33:38;1.63;;;1.20;;
12445;SDS011;6287;50.984;7.022;2022-09-25T16:36:10;1.40;;;1.00;;
12445;SDS011;6287;50.984;7.022;2022-09-25T16:39:02;1.00;;;0.90;;
12445;SDS011;6287;50.984;7.022;2022-09-25T16:41:38;1.00;;;0.50;;
12445;SDS011;6287;50.984;7.022;2022-09-25T16:47:05;1.80;;;0.57;;
12445;SDS011;6287;50.984;7.022;2022-09-25T16:49:41;2.00;;;0.90;;
12445;SDS011;6287;50.984;7.022;2022-09-25T16:52:09;0.97;;;0.97;;
12445;SDS011;6287;50.984;7.022;2022-09-25T16:54:48;1.93;;;1.80;;
12445;SDS011;6287;50.984;7.022;2022-09-25T16:57:21;1.13;;;1.03;;
12445;SDS011;6287;50.984;7.022;2022-09-25T16:59:51;0.83;;;0.60;;
12445;SDS011;6287;50.984;7.022;2022-09-25T17:02:27;0.63;;;0.57;;
12445;SDS011;6287;50.984;7.022;2022-09-25T17:05:07;1.83;;;0.50;;
12445;SDS011;6287;50.984;7.022;2022-09-25T17:07:38;1.33;;;0.50;;
12445;SDS011;6287;50.984;7.022;2022-09-25T17:10:04;0.50;;;0.50;;
12445;SDS011;6287;50.984;7.022;2022-09-25T17:12:35;0.47;;;0.40;;
12445;SDS011;6287;50.984;7.022;2022-09-25T17:15:01;0.37;;;0.37;;
12445;SDS011;6287;50.984;7.022;2022-09-25T17:17:27;3.43;;;0.67;;
12445;SDS011;6287;50.984;7.022;2022-09-25T17:19:54;1.23;;;0.47;;
12445;SDS011;6287;50.984;7.022;2022-09-25T17:22:20;0.97;;;0.57;;
12445;SDS011;6287;50.984;7.022;2022-09-25T17:24:53;0.73;;;0.63;;
12445;SDS011;6287;50.984;7.022;2022-09-25T17:27:20;0.40;;;0.40;;
12445;SDS011;6287;50.984;7.022;2022-09-25T17:29:48;0.50;;;0.50;;
12445;SDS011;6287;50.984;7.022;2022-09-25T17:32:14;0.60;;;0.60;;
12445;SDS011;6287;50.984;7.022;2022-09-25T17:34:46;0.67;;;0.60;;
12445;SDS011;6287;50.984;7.022;2022-09-25T17:37:11;2.83;;;0.70;;
12445;SDS011;6287;50.984;7.022;2022-09-25T17:39:40;0.77;;;0.77;;
12445;SDS011;6287;50.984;7.022;2022-09-25T17:42:08;1.93;;;0.70;;
12445;SDS011;6287;50.984;7.022;2022-09-25T17:44:36;0.73;;;0.73;;
12445;SDS011;6287;50.984;7.022;2022-09-25T17:47:08;0.77;;;0.47;;
12445;SDS011;6287;50.984;7.022;2022-09-25T17:49:34;0.33;;;0.33;;
12445;SDS011;6287;50.984;7.022;2022-09-25T17:52:00;0.43;;;0.43;;
12445;SDS011;6287;50.984;7.022;2022-09-25T17:54:27;1.23;;;0.70;;
12445;SDS011;6287;50.984;7.022;2022-09-25T17:56:57;2.37;;;1.60;;
12445;SDS011;6287;50.984;7.022;2022-09-25T17:59:23;5.17;;;2.27;;
12445;SDS011;6287;50.984;7.022;2022-09-25T18:01:49;4.23;;;2.30;;
12445;SDS011;6287;50.984;7.022;2022-09-25T18:04:22;4.93;;;2.37;;
12445;SDS011;6287;50.984;7.022;2022-09-25T18:06:48;2.70;;;1.80;;
12445;SDS011;6287;50.984;7.022;2022-09-25T18:09:14;1.63;;;1.50;;
12445;SDS011;6287;50.984;7.022;2022-09-25T18:11:42;2.70;;;2.03;;
12445;SDS011;6287;50.984;7.022;2022-09-25T18:14:11;1.67;;;1.37;;
12445;SDS011;6287;50.984;7.022;2022-09-25T18:16:38;1.63;;;1.00;;
12445;SDS011;6287;50.984;7.022;2022-09-25T18:19:05;0.93;;;0.87;;
12445;SDS011;6287;50.984;7.022;2022-09-25T18:21:49;1.70;;;0.93;;
12445;SDS011;6287;50.984;7.022;2022-09-25T18:24:33;0.97;;;0.70;;
12445;SDS011;6287;50.984;7.022;2022-09-25T18:26:59;1.37;;;1.00;;
12445;SDS011;6287;50.984;7.022;2022-09-25T18:29:27;0.60;;;0.60;;
12445;SDS011;6287;50.984;7.022;2022-09-25T18:31:53;0.93;;;0.53;;
12445;SDS011;6287;50.984;7.022;2022-09-25T18:34:18;0.70;;;0.70;;
12445;SDS011;6287;50.984;7.022;2022-09-25T18:36:45;1.30;;;1.30;;
12445;SDS011;6287;50.984;7.022;2022-09-25T18:39:13;1.73;;;1.63;;
12445;SDS011;6287;50.984;7.022;2022-09-25T18:41:39;3.47;;;2.50;;
12445;SDS011;6287;50.984;7.022;2022-09-25T18:44:07;2.67;;;2.47;;
12445;SDS011;6287;50.984;7.022;2022-09-25T18:46:34;3.23;;;3.00;;
12445;SDS011;6287;50.984;7.022;2022-09-25T18:49:03;3.10;;;2.80;;
12445;SDS011;6287;50.984;7.022;2022-09-25T18:51:32;2.97;;;2.60;;
12445;SDS011;6287;50.984;7.022;2022-09-25T18:53:58;3.43;;;2.60;;
12445;SDS011;6287;50.984;7.022;2022-09-25T18:56:26;3.70;;;3.40;;
12445;SDS011;6287;50.984;7.022;2022-09-25T18:58:56;3.20;;;2.90;;
12445;SDS011;6287;50.984;7.022;2022-09-25T19:01:21;3.40;;;3.10;;